Terminal Aerodrome Forecast
Issued by NWS Jackson, MS

Home | Current Version | Previous Version | Text Only | Print | Product List | Glossary On
Versions: 1 2 3 4 5 6 7 8 9 10 11 12
000
FTUS44 KJAN 272300
TAFHBG
TAF
KHBG 272320Z 2800/2824 14007KT 5SM -RA BR VCTS BKN007CB OVC015
     FM280400 14005KT 3SM TSRA OVC005CB
     FM280800 18005KT 3SM -RA BR OVC003
     FM281500 32005KT 3SM -RA BR OVC006=

USA.gov is the U.S. government's official web portal to all federal, state and local government web resources and services.